sensor_id;sensor_type;location;lat;lon;timestamp;pressure;altitude;pressure_sealevel;temperature;humidity
51053;BME280;37093;37.716;-122.060;2023-02-02T00:01:53;100482.46;;;16.33;26.36
51053;BME280;37093;37.716;-122.060;2023-02-02T00:04:23;100479.36;;;16.29;25.99
51053;BME280;37093;37.716;-122.060;2023-02-02T00:06:53;100476.87;;;16.09;26.46
51053;BME280;37093;37.716;-122.060;2023-02-02T00:09:22;100477.90;;;16.77;26.14
51053;BME280;37093;37.716;-122.060;2023-02-02T00:11:51;100480.70;;;17.05;25.71
51053;BME280;37093;37.716;-122.060;2023-02-02T00:14:20;100479.05;;;16.32;26.58
51053;BME280;37093;37.716;-122.060;2023-02-02T00:16:50;100479.64;;;16.34;26.29
51053;BME280;37093;37.716;-122.060;2023-02-02T00:19:21;100491.26;;;16.91;25.93
51053;BME280;37093;37.716;-122.060;2023-02-02T00:21:49;100494.88;;;16.95;26.05
51053;BME280;37093;37.716;-122.060;2023-02-02T00:24:19;100486.60;;;16.60;26.91
51053;BME280;37093;37.716;-122.060;2023-02-02T00:26:49;100497.08;;;16.76;26.33
51053;BME280;37093;37.716;-122.060;2023-02-02T00:29:20;100497.73;;;16.83;26.39
51053;BME280;37093;37.716;-122.060;2023-02-02T00:31:49;100504.28;;;16.85;26.05
51053;BME280;37093;37.716;-122.060;2023-02-02T00:34:17;100501.98;;;16.93;26.54
51053;BME280;37093;37.716;-122.060;2023-02-02T00:36:46;100503.74;;;16.33;26.57
51053;BME280;37093;37.716;-122.060;2023-02-02T00:39:16;100510.51;;;16.73;26.54
51053;BME280;37093;37.716;-122.060;2023-02-02T00:41:45;100520.93;;;16.94;26.37
51053;BME280;37093;37.716;-122.060;2023-02-02T00:44:14;100525.79;;;17.28;26.52
51053;BME280;37093;37.716;-122.060;2023-02-02T00:46:42;100524.55;;;17.03;27.25
51053;BME280;37093;37.716;-122.060;2023-02-02T00:49:11;100528.83;;;17.36;26.50
51053;BME280;37093;37.716;-122.060;2023-02-02T00:51:39;100531.52;;;17.79;25.55
51053;BME280;37093;37.716;-122.060;2023-02-02T00:54:08;100533.55;;;17.03;26.19
51053;BME280;37093;37.716;-122.060;2023-02-02T00:56:37;100537.10;;;17.38;26.18
51053;BME280;37093;37.716;-122.060;2023-02-02T00:59:06;100534.88;;;16.90;26.28
51053;BME280;37093;37.716;-122.060;2023-02-02T01:01:34;100530.17;;;16.82;26.84
51053;BME280;37093;37.716;-122.060;2023-02-02T01:04:02;100531.03;;;16.99;26.54
51053;BME280;37093;37.716;-122.060;2023-02-02T01:06:31;100532.53;;;17.13;26.69
51053;BME280;37093;37.716;-122.060;2023-02-02T01:08:59;100533.63;;;16.87;26.65
51053;BME280;37093;37.716;-122.060;2023-02-02T01:11:28;100532.02;;;17.44;26.48
51053;BME280;37093;37.716;-122.060;2023-02-02T01:13:56;100540.74;;;17.22;25.99
51053;BME280;37093;37.716;-122.060;2023-02-02T01:16:25;100544.47;;;17.22;25.87
51053;BME280;37093;37.716;-122.060;2023-02-02T01:18:53;100544.28;;;17.22;26.26
51053;BME280;37093;37.716;-122.060;2023-02-02T01:21:22;100539.19;;;17.13;26.82
51053;BME280;37093;37.716;-122.060;2023-02-02T01:23:50;100540.34;;;17.24;26.63
51053;BME280;37093;37.716;-122.060;2023-02-02T01:26:19;100538.91;;;17.21;26.90
51053;BME280;37093;37.716;-122.060;2023-02-02T01:28:47;100539.50;;;17.45;26.38
51053;BME280;37093;37.716;-122.060;2023-02-02T01:31:18;100541.62;;;17.24;26.82
51053;BME280;37093;37.716;-122.060;2023-02-02T01:33:48;100544.56;;;17.43;26.06
51053;BME280;37093;37.716;-122.060;2023-02-02T01:36:17;100543.14;;;17.22;26.26
51053;BME280;37093;37.716;-122.060;2023-02-02T01:38:47;100543.71;;;17.10;26.69
51053;BME280;37093;37.716;-122.060;2023-02-02T01:41:18;100537.28;;;16.92;26.15
51053;BME280;37093;37.716;-122.060;2023-02-02T01:43:53;100540.74;;;16.90;26.44
51053;BME280;37093;37.716;-122.060;2023-02-02T01:46:24;100537.33;;;16.54;26.78
51053;BME280;37093;37.716;-122.060;2023-02-02T01:48:57;100541.96;;;16.26;26.86
51053;BME280;37093;37.716;-122.060;2023-02-02T01:51:31;100540.71;;;16.05;27.60
51053;BME280;37093;37.716;-122.060;2023-02-02T01:54:03;100546.82;;;16.22;27.65
51053;BME280;37093;37.716;-122.060;2023-02-02T01:56:38;100548.23;;;15.89;27.77
51053;BME280;37093;37.716;-122.060;2023-02-02T01:59:09;100547.26;;;15.48;28.26
51053;BME280;37093;37.716;-122.060;2023-02-02T02:01:38;100549.57;;;15.52;28.80
51053;BME280;37093;37.716;-122.060;2023-02-02T02:04:06;100548.09;;;15.42;28.70
51053;BME280;37093;37.716;-122.060;2023-02-02T02:06:34;100548.48;;;15.57;28.62
51053;BME280;37093;37.716;-122.060;2023-02-02T02:09:06;100548.84;;;15.39;29.12
51053;BME280;37093;37.716;-122.060;2023-02-02T02:11:36;100548.28;;;15.57;28.62
51053;BME280;37093;37.716;-122.060;2023-02-02T02:14:07;100546.69;;;15.84;28.86
51053;BME280;37093;37.716;-122.060;2023-02-02T02:16:45;100544.54;;;14.58;30.25
51053;BME280;37093;37.716;-122.060;2023-02-02T02:19:34;100540.79;;;14.94;30.17
51053;BME280;37093;37.716;-122.060;2023-02-02T02:22:12;100546.42;;;14.56;30.75
51053;BME280;37093;37.716;-122.060;2023-02-02T02:25:02;100541.37;;;14.39;30.34
51053;BME280;37093;37.716;-122.060;2023-02-02T02:28:06;100540.39;;;14.80;30.19
51053;BME280;37093;37.716;-122.060;2023-02-02T02:32:52;100547.28;;;14.75;30.79
51053;BME280;37093;37.716;-122.060;2023-02-02T02:35:30;100548.70;;;14.48;30.65
51053;BME280;37093;37.716;-122.060;2023-02-02T02:38:07;100548.83;;;14.19;31.35
51053;BME280;37093;37.716;-122.060;2023-02-02T02:40:39;100543.16;;;14.40;30.66
51053;BME280;37093;37.716;-122.060;2023-02-02T02:43:13;100540.51;;;14.08;31.08
51053;BME280;37093;37.716;-122.060;2023-02-02T02:45:43;100531.55;;;14.09;31.30
51053;BME280;37093;37.716;-122.060;2023-02-02T02:48:13;100531.99;;;13.99;31.65
51053;BME280;37093;37.716;-122.060;2023-02-02T02:50:41;100543.24;;;13.99;31.54
51053;BME280;37093;37.716;-122.060;2023-02-02T02:53:13;100545.70;;;13.94;31.46
51053;BME280;37093;37.716;-122.060;2023-02-02T02:55:47;100551.79;;;13.91;31.79
51053;BME280;37093;37.716;-122.060;2023-02-02T02:58:20;100558.59;;;14.06;31.10
51053;BME280;37093;37.716;-122.060;2023-02-02T03:01:01;100568.98;;;13.90;31.61
51053;BME280;37093;37.716;-122.060;2023-02-02T03:03:45;100571.39;;;13.95;31.22
51053;BME280;37093;37.716;-122.060;2023-02-02T03:06:22;100575.15;;;14.35;31.07
51053;BME280;37093;37.716;-122.060;2023-02-02T03:08:59;100572.23;;;14.27;30.77
51053;BME280;37093;37.716;-122.060;2023-02-02T03:11:28;100578.38;;;14.61;30.48
51053;BME280;37093;37.716;-122.060;2023-02-02T03:13:57;100578.04;;;14.49;29.87
51053;BME280;37093;37.716;-122.060;2023-02-02T03:16:26;100584.68;;;14.73;29.58
51053;BME280;37093;37.716;-122.060;2023-02-02T03:18:55;100583.72;;;14.74;29.65
51053;BME280;37093;37.716;-122.060;2023-02-02T03:21:24;100583.88;;;15.00;29.33
51053;BME280;37093;37.716;-122.060;2023-02-02T03:23:52;100586.71;;;15.33;28.90
51053;BME280;37093;37.716;-122.060;2023-02-02T03:26:21;100590.92;;;15.05;29.29
51053;BME280;37093;37.716;-122.060;2023-02-02T03:28:50;100588.96;;;15.51;29.18
51053;BME280;37093;37.716;-122.060;2023-02-02T03:31:18;100592.77;;;15.10;29.12
51053;BME280;37093;37.716;-122.060;2023-02-02T03:33:46;100595.72;;;15.34;28.96
51053;BME280;37093;37.716;-122.060;2023-02-02T03:36:15;100597.49;;;15.11;28.93
51053;BME280;37093;37.716;-122.060;2023-02-02T03:38:43;100596.26;;;15.06;29.02
51053;BME280;37093;37.716;-122.060;2023-02-02T03:41:11;100593.51;;;15.05;29.23
51053;BME280;37093;37.716;-122.060;2023-02-02T03:43:40;100594.70;;;15.26;28.94
51053;BME280;37093;37.716;-122.060;2023-02-02T03:46:08;100591.15;;;14.62;29.45
51053;BME280;37093;37.716;-122.060;2023-02-02T03:48:37;100595.17;;;14.98;29.46
51053;BME280;37093;37.716;-122.060;2023-02-02T03:51:06;100601.27;;;14.81;29.82
51053;BME280;37093;37.716;-122.060;2023-02-02T03:53:34;100603.67;;;14.69;30.28
51053;BME280;37093;37.716;-122.060;2023-02-02T03:56:04;100609.63;;;14.27;30.85
51053;BME280;37093;37.716;-122.060;2023-02-02T03:58:33;100607.69;;;14.29;30.50
51053;BME280;37093;37.716;-122.060;2023-02-02T04:01:03;100609.28;;;14.31;30.77
51053;BME280;37093;37.716;-122.060;2023-02-02T04:03:32;100607.36;;;14.44;30.67
51053;BME280;37093;37.716;-122.060;2023-02-02T04:06:01;100608.99;;;14.24;30.96
51053;BME280;37093;37.716;-122.060;2023-02-02T04:08:30;100612.95;;;14.21;31.11
51053;BME280;37093;37.716;-122.060;2023-02-02T04:10:58;100616.61;;;14.20;31.10
51053;BME280;37093;37.716;-122.060;2023-02-02T04:13:26;100618.15;;;14.13;31.25
51053;BME280;37093;37.716;-122.060;2023-02-02T04:15:59;100621.45;;;13.99;31.07
51053;BME280;37093;37.716;-122.060;2023-02-02T04:18:27;100619.35;;;14.03;31.45
51053;BME280;37093;37.716;-122.060;2023-02-02T04:20:57;100621.34;;;13.76;31.52
51053;BME280;37093;37.716;-122.060;2023-02-02T04:23:27;100625.20;;;13.67;31.68
51053;BME280;37093;37.716;-122.060;2023-02-02T04:25:56;100629.78;;;13.36;32.32
51053;BME280;37093;37.716;-122.060;2023-02-02T04:28:25;100632.33;;;13.52;32.13
51053;BME280;37093;37.716;-122.060;2023-02-02T04:30:54;100632.40;;;13.29;32.06
51053;BME280;37093;37.716;-122.060;2023-02-02T04:33:24;100630.81;;;12.96;33.05
51053;BME280;37093;37.716;-122.060;2023-02-02T04:35:53;100632.98;;;13.47;32.85
51053;BME280;37093;37.716;-122.060;2023-02-02T04:38:21;100628.14;;;12.94;33.34
51053;BME280;37093;37.716;-122.060;2023-02-02T04:40:49;100629.66;;;13.04;33.42
51053;BME280;37093;37.716;-122.060;2023-02-02T04:43:18;100626.30;;;12.92;33.30
51053;BME280;37093;37.716;-122.060;2023-02-02T04:45:46;100625.67;;;13.10;33.04
51053;BME280;37093;37.716;-122.060;2023-02-02T04:48:14;100625.55;;;12.31;34.12
51053;BME280;37093;37.716;-122.060;2023-02-02T04:50:43;100626.33;;;12.40;33.77
51053;BME280;37093;37.716;-122.060;2023-02-02T04:53:11;100623.68;;;12.28;34.09
51053;BME280;37093;37.716;-122.060;2023-02-02T04:55:40;100626.48;;;12.16;34.30
51053;BME280;37093;37.716;-122.060;2023-02-02T04:58:09;100629.31;;;12.43;34.01
51053;BME280;37093;37.716;-122.060;2023-02-02T05:00:37;100631.30;;;12.57;33.49
51053;BME280;37093;37.716;-122.060;2023-02-02T05:03:06;100627.80;;;12.61;33.28
51053;BME280;37093;37.716;-122.060;2023-02-02T05:05:34;100630.14;;;12.58;33.25
51053;BME280;37093;37.716;-122.060;2023-02-02T05:08:03;100630.65;;;12.97;33.10
51053;BME280;37093;37.716;-122.060;2023-02-02T05:10:32;100634.49;;;12.48;33.52
51053;BME280;37093;37.716;-122.060;2023-02-02T05:13:00;100636.49;;;12.44;33.47
51053;BME280;37093;37.716;-122.060;2023-02-02T05:15:28;100642.16;;;12.73;33.41
51053;BME280;37093;37.716;-122.060;2023-02-02T05:17:57;100642.09;;;12.32;33.57
51053;BME280;37093;37.716;-122.060;2023-02-02T05:20:25;100643.13;;;11.80;33.99
51053;BME280;37093;37.716;-122.060;2023-02-02T05:22:54;100642.29;;;12.58;33.45
51053;BME280;37093;37.716;-122.060;2023-02-02T05:25:22;100642.72;;;12.31;33.40
51053;BME280;37093;37.716;-122.060;2023-02-02T05:27:51;100644.41;;;12.41;33.63
51053;BME280;37093;37.716;-122.060;2023-02-02T05:30:19;100650.26;;;12.93;33.31
51053;BME280;37093;37.716;-122.060;2023-02-02T05:32:47;100650.92;;;11.98;33.81
51053;BME280;37093;37.716;-122.060;2023-02-02T05:35:16;100643.63;;;12.27;33.53
51053;BME280;37093;37.716;-122.060;2023-02-02T05:37:44;100647.41;;;12.93;33.30
51053;BME280;37093;37.716;-122.060;2023-02-02T05:40:13;100646.32;;;12.42;33.78
51053;BME280;37093;37.716;-122.060;2023-02-02T05:42:41;100647.81;;;12.44;33.73
51053;BME280;37093;37.716;-122.060;2023-02-02T05:45:10;100646.31;;;12.03;33.66
51053;BME280;37093;37.716;-122.060;2023-02-02T05:47:38;100649.83;;;12.00;33.61
51053;BME280;37093;37.716;-122.060;2023-02-02T05:50:08;100651.49;;;12.53;33.49
51053;BME280;37093;37.716;-122.060;2023-02-02T05:52:37;100652.12;;;12.47;33.72
51053;BME280;37093;37.716;-122.060;2023-02-02T05:55:08;100655.01;;;12.20;33.60
51053;BME280;37093;37.716;-122.060;2023-02-02T05:57:37;100653.74;;;12.59;33.31
51053;BME280;37093;37.716;-122.060;2023-02-02T06:00:08;100658.40;;;12.05;33.51
51053;BME280;37093;37.716;-122.060;2023-02-02T06:02:36;100665.55;;;12.33;33.67
51053;BME280;37093;37.716;-122.060;2023-02-02T06:05:06;100667.19;;;12.46;33.40
51053;BME280;37093;37.716;-122.060;2023-02-02T06:07:35;100674.82;;;12.24;33.56
51053;BME280;37093;37.716;-122.060;2023-02-02T06:10:04;100678.33;;;12.34;33.61
51053;BME280;37093;37.716;-122.060;2023-02-02T06:12:32;100678.82;;;12.40;33.51
51053;BME280;37093;37.716;-122.060;2023-02-02T06:15:00;100675.29;;;12.40;33.56
51053;BME280;37093;37.716;-122.060;2023-02-02T06:17:28;100676.69;;;12.54;33.24
51053;BME280;37093;37.716;-122.060;2023-02-02T06:19:56;100680.50;;;12.50;33.73
51053;BME280;37093;37.716;-122.060;2023-02-02T06:22:25;100679.73;;;12.48;33.32
51053;BME280;37093;37.716;-122.060;2023-02-02T06:24:54;100683.37;;;12.49;32.79
51053;BME280;37093;37.716;-122.060;2023-02-02T06:27:22;100684.98;;;12.72;32.45
51053;BME280;37093;37.716;-122.060;2023-02-02T06:29:50;100688.22;;;12.80;32.51
51053;BME280;37093;37.716;-122.060;2023-02-02T06:32:19;100690.57;;;12.91;32.66
51053;BME280;37093;37.716;-122.060;2023-02-02T06:34:47;100695.21;;;12.95;32.96
51053;BME280;37093;37.716;-122.060;2023-02-02T06:37:16;100695.69;;;13.07;32.29
51053;BME280;37093;37.716;-122.060;2023-02-02T06:39:44;100695.20;;;13.16;32.12
51053;BME280;37093;37.716;-122.060;2023-02-02T06:42:13;100694.22;;;13.28;31.95
51053;BME280;37093;37.716;-122.060;2023-02-02T06:44:41;100694.47;;;13.18;32.12
51053;BME280;37093;37.716;-122.060;2023-02-02T06:47:10;100693.80;;;13.29;31.46
51053;BME280;37093;37.716;-122.060;2023-02-02T06:49:39;100694.31;;;13.27;31.83
51053;BME280;37093;37.716;-122.060;2023-02-02T06:52:07;100693.62;;;13.28;31.97
51053;BME280;37093;37.716;-122.060;2023-02-02T06:54:36;100694.00;;;13.06;31.74
51053;BME280;37093;37.716;-122.060;2023-02-02T06:57:05;100694.54;;;13.34;31.75
51053;BME280;37093;37.716;-122.060;2023-02-02T06:59:33;100700.69;;;13.04;31.83
51053;BME280;37093;37.716;-122.060;2023-02-02T07:02:02;100703.84;;;13.17;32.04
51053;BME280;37093;37.716;-122.060;2023-02-02T07:04:30;100709.48;;;12.98;32.39
51053;BME280;37093;37.716;-122.060;2023-02-02T07:06:59;100711.19;;;12.72;32.51
51053;BME280;37093;37.716;-122.060;2023-02-02T07:09:27;100709.17;;;12.92;32.66
51053;BME280;37093;37.716;-122.060;2023-02-02T07:11:56;100708.65;;;12.95;32.34
51053;BME280;37093;37.716;-122.060;2023-02-02T07:14:24;100709.21;;;12.86;32.67
51053;BME280;37093;37.716;-122.060;2023-02-02T07:16:53;100708.86;;;12.95;32.53
51053;BME280;37093;37.716;-122.060;2023-02-02T07:19:22;100705.81;;;12.84;32.67
51053;BME280;37093;37.716;-122.060;2023-02-02T07:21:50;100706.03;;;13.30;32.49
51053;BME280;37093;37.716;-122.060;2023-02-02T07:24:18;100705.48;;;12.67;32.73
51053;BME280;37093;37.716;-122.060;2023-02-02T07:26:47;100707.42;;;13.02;32.91
51053;BME280;37093;37.716;-122.060;2023-02-02T07:29:16;100711.60;;;12.88;33.45
51053;BME280;37093;37.716;-122.060;2023-02-02T07:31:44;100707.88;;;12.17;33.75
51053;BME280;37093;37.716;-122.060;2023-02-02T07:34:13;100707.20;;;12.32;33.42
51053;BME280;37093;37.716;-122.060;2023-02-02T07:36:41;100708.64;;;12.62;33.45
51053;BME280;37093;37.716;-122.060;2023-02-02T07:39:11;100710.03;;;12.60;33.73
51053;BME280;37093;37.716;-122.060;2023-02-02T07:41:39;100710.05;;;12.80;33.57
51053;BME280;37093;37.716;-122.060;2023-02-02T07:44:12;100708.02;;;12.36;33.51
51053;BME280;37093;37.716;-122.060;2023-02-02T07:46:41;100713.34;;;12.94;33.22
51053;BME280;37093;37.716;-122.060;2023-02-02T07:49:12;100711.35;;;12.67;33.34
51053;BME280;37093;37.716;-122.060;2023-02-02T07:51:42;100706.79;;;12.68;33.57
51053;BME280;37093;37.716;-122.060;2023-02-02T07:54:10;100701.58;;;12.55;33.52
51053;BME280;37093;37.716;-122.060;2023-02-02T07:56:39;100695.46;;;12.41;34.00
51053;BME280;37093;37.716;-122.060;2023-02-02T07:59:08;100693.54;;;12.11;34.50
51053;BME280;37093;37.716;-122.060;2023-02-02T08:01:14;100690.48;;;10.81;34.34
51053;BME280;37093;37.716;-122.060;2023-02-02T08:03:44;100688.32;;;11.27;33.01
51053;BME280;37093;37.716;-122.060;2023-02-02T08:06:16;100687.15;;;12.95;31.86
51053;BME280;37093;37.716;-122.060;2023-02-02T08:08:45;100682.56;;;13.38;31.63
51053;BME280;37093;37.716;-122.060;2023-02-02T08:11:15;100683.53;;;13.13;32.33
51053;BME280;37093;37.716;-122.060;2023-02-02T08:13:46;100685.06;;;12.91;32.94
51053;BME280;37093;37.716;-122.060;2023-02-02T08:16:16;100681.96;;;12.46;33.58
51053;BME280;37093;37.716;-122.060;2023-02-02T08:18:45;100683.68;;;12.59;33.47
51053;BME280;37093;37.716;-122.060;2023-02-02T08:21:14;100684.94;;;12.33;33.70
51053;BME280;37093;37.716;-122.060;2023-02-02T08:23:44;100688.25;;;12.29;34.00
51053;BME280;37093;37.716;-122.060;2023-02-02T08:26:14;100684.62;;;12.41;34.07
51053;BME280;37093;37.716;-122.060;2023-02-02T08:28:45;100686.12;;;11.87;34.84
51053;BME280;37093;37.716;-122.060;2023-02-02T08:31:16;100685.92;;;11.70;35.19
51053;BME280;37093;37.716;-122.060;2023-02-02T08:33:45;100685.19;;;11.82;34.99
51053;BME280;37093;37.716;-122.060;2023-02-02T08:36:15;100693.71;;;11.80;34.88
51053;BME280;37093;37.716;-122.060;2023-02-02T08:38:43;100693.89;;;11.51;34.72
51053;BME280;37093;37.716;-122.060;2023-02-02T08:41:13;100693.07;;;11.78;34.65
51053;BME280;37093;37.716;-122.060;2023-02-02T08:43:42;100691.13;;;12.06;34.54
51053;BME280;37093;37.716;-122.060;2023-02-02T08:46:14;100693.05;;;12.08;34.79
51053;BME280;37093;37.716;-122.060;2023-02-02T08:48:43;100691.49;;;12.16;34.58
51053;BME280;37093;37.716;-122.060;2023-02-02T08:51:13;100691.71;;;12.06;34.83
51053;BME280;37093;37.716;-122.060;2023-02-02T08:53:42;100692.53;;;11.83;35.13
51053;BME280;37093;37.716;-122.060;2023-02-02T08:56:12;100697.60;;;11.96;35.05
51053;BME280;37093;37.716;-122.060;2023-02-02T08:58:45;100699.12;;;11.89;34.85
51053;BME280;37093;37.716;-122.060;2023-02-02T09:01:15;100698.87;;;12.03;34.75
51053;BME280;37093;37.716;-122.060;2023-02-02T09:03:45;100697.77;;;12.43;34.21
51053;BME280;37093;37.716;-122.060;2023-02-02T09:06:15;100701.48;;;11.65;34.67
51053;BME280;37093;37.716;-122.060;2023-02-02T09:08:45;100702.56;;;12.10;34.79
51053;BME280;37093;37.716;-122.060;2023-02-02T09:11:15;100708.02;;;11.86;34.95
51053;BME280;37093;37.716;-122.060;2023-02-02T09:13:45;100708.22;;;12.23;34.65
51053;BME280;37093;37.716;-122.060;2023-02-02T09:16:15;100706.13;;;11.52;34.78
51053;BME280;37093;37.716;-122.060;2023-02-02T09:18:44;100704.21;;;12.08;34.73
51053;BME280;37093;37.716;-122.060;2023-02-02T09:21:15;100706.36;;;11.43;34.88
51053;BME280;37093;37.716;-122.060;2023-02-02T09:23:44;100705.76;;;12.16;34.62
51053;BME280;37093;37.716;-122.060;2023-02-02T09:26:15;100703.58;;;12.14;34.76
51053;BME280;37093;37.716;-122.060;2023-02-02T09:28:45;100703.37;;;12.08;34.52
51053;BME280;37093;37.716;-122.060;2023-02-02T09:31:15;100703.41;;;11.41;34.79
51053;BME280;37093;37.716;-122.060;2023-02-02T09:33:43;100702.50;;;11.65;35.18
51053;BME280;37093;37.716;-122.060;2023-02-02T09:36:13;100703.59;;;11.83;35.16
51053;BME280;37093;37.716;-122.060;2023-02-02T09:38:43;100703.94;;;11.77;35.18
51053;BME280;37093;37.716;-122.060;2023-02-02T09:41:26;100704.11;;;11.86;35.13
51053;BME280;37093;37.716;-122.060;2023-02-02T09:44:04;100702.26;;;11.82;35.09
51053;BME280;37093;37.716;-122.060;2023-02-02T09:46:44;100707.60;;;11.88;34.90
51053;BME280;37093;37.716;-122.060;2023-02-02T09:49:20;100707.71;;;11.98;34.64
51053;BME280;37093;37.716;-122.060;2023-02-02T09:51:53;100712.98;;;11.85;34.82
51053;BME280;37093;37.716;-122.060;2023-02-02T09:54:30;100714.46;;;11.31;35.32
51053;BME280;37093;37.716;-122.060;2023-02-02T09:57:03;100713.24;;;11.23;35.64
51053;BME280;37093;37.716;-122.060;2023-02-02T09:59:40;100710.76;;;11.62;35.93
51053;BME280;37093;37.716;-122.060;2023-02-02T10:02:14;100714.87;;;11.51;35.52
51053;BME280;37093;37.716;-122.060;2023-02-02T10:04:47;100717.70;;;11.46;35.63
51053;BME280;37093;37.716;-122.060;2023-02-02T10:07:19;100716.88;;;11.84;34.95
51053;BME280;37093;37.716;-122.060;2023-02-02T10:09:56;100714.66;;;11.69;35.32
51053;BME280;37093;37.716;-122.060;2023-02-02T10:12:33;100715.70;;;11.60;35.22
51053;BME280;37093;37.716;-122.060;2023-02-02T10:15:10;100718.08;;;11.76;34.75
51053;BME280;37093;37.716;-122.060;2023-02-02T10:17:47;100715.45;;;11.65;35.08
51053;BME280;37093;37.716;-122.060;2023-02-02T10:20:24;100722.33;;;11.70;34.96
51053;BME280;37093;37.716;-122.060;2023-02-02T10:22:58;100722.91;;;11.79;34.67
51053;BME280;37093;37.716;-122.060;2023-02-02T10:25:32;100722.47;;;11.62;34.89
51053;BME280;37093;37.716;-122.060;2023-02-02T10:28:09;100712.66;;;11.65;35.01
51053;BME280;37093;37.716;-122.060;2023-02-02T10:30:45;100712.15;;;11.70;34.93
51053;BME280;37093;37.716;-122.060;2023-02-02T10:33:22;100712.32;;;11.58;35.03
51053;BME280;37093;37.716;-122.060;2023-02-02T10:35:58;100710.12;;;11.60;35.32
51053;BME280;37093;37.716;-122.060;2023-02-02T10:38:37;100712.48;;;11.43;35.37
51053;BME280;37093;37.716;-122.060;2023-02-02T10:41:15;100712.09;;;11.46;35.46
51053;BME280;37093;37.716;-122.060;2023-02-02T10:44:01;100709.67;;;11.66;34.98
51053;BME280;37093;37.716;-122.060;2023-02-02T10:46:33;100708.57;;;11.49;35.17
51053;BME280;37093;37.716;-122.060;2023-02-02T10:49:14;100701.26;;;11.71;35.02
51053;BME280;37093;37.716;-122.060;2023-02-02T10:51:50;100698.80;;;11.68;35.11
51053;BME280;37093;37.716;-122.060;2023-02-02T10:54:33;100694.71;;;11.54;35.41
51053;BME280;37093;37.716;-122.060;2023-02-02T10:57:06;100694.75;;;10.73;36.40
51053;BME280;37093;37.716;-122.060;2023-02-02T10:59:43;100694.83;;;10.48;36.89
51053;BME280;37093;37.716;-122.060;2023-02-02T11:02:16;100696.57;;;10.76;37.38
51053;BME280;37093;37.716;-122.060;2023-02-02T11:04:45;100691.72;;;10.75;36.56
51053;BME280;37093;37.716;-122.060;2023-02-02T11:07:13;100688.56;;;11.12;35.76
51053;BME280;37093;37.716;-122.060;2023-02-02T11:09:42;100686.86;;;11.02;35.71
51053;BME280;37093;37.716;-122.060;2023-02-02T11:12:22;100687.09;;;10.65;35.70
51053;BME280;37093;37.716;-122.060;2023-02-02T11:14:58;100683.18;;;11.27;34.81
51053;BME280;37093;37.716;-122.060;2023-02-02T11:17:26;100681.46;;;11.49;34.90
51053;BME280;37093;37.716;-122.060;2023-02-02T11:19:55;100681.95;;;11.16;34.93
51053;BME280;37093;37.716;-122.060;2023-02-02T11:22:27;100680.98;;;11.05;35.43
51053;BME280;37093;37.716;-122.060;2023-02-02T11:24:59;100679.09;;;11.28;34.85
51053;BME280;37093;37.716;-122.060;2023-02-02T11:27:30;100679.91;;;11.26;34.86
51053;BME280;37093;37.716;-122.060;2023-02-02T11:30:08;100676.86;;;11.76;34.38
51053;BME280;37093;37.716;-122.060;2023-02-02T11:32:39;100678.08;;;11.19;34.64
51053;BME280;37093;37.716;-122.060;2023-02-02T11:35:24;100685.11;;;11.59;34.68
51053;BME280;37093;37.716;-122.060;2023-02-02T11:37:59;100685.95;;;11.40;35.32
51053;BME280;37093;37.716;-122.060;2023-02-02T11:40:36;100685.50;;;11.07;34.76
51053;BME280;37093;37.716;-122.060;2023-02-02T11:43:15;100687.86;;;11.47;34.66
51053;BME280;37093;37.716;-122.060;2023-02-02T11:45:45;100679.62;;;11.59;34.37
51053;BME280;37093;37.716;-122.060;2023-02-02T11:48:18;100677.58;;;11.41;35.09
51053;BME280;37093;37.716;-122.060;2023-02-02T11:50:48;100675.93;;;11.16;35.51
51053;BME280;37093;37.716;-122.060;2023-02-02T11:53:27;100681.82;;;10.88;35.94
51053;BME280;37093;37.716;-122.060;2023-02-02T11:55:59;100683.96;;;11.07;36.09
51053;BME280;37093;37.716;-122.060;2023-02-02T11:58:30;100685.03;;;10.89;36.24
51053;BME280;37093;37.716;-122.060;2023-02-02T12:01:22;100683.33;;;10.42;36.68
51053;BME280;37093;37.716;-122.060;2023-02-02T12:03:54;100686.84;;;10.29;37.28
51053;BME280;37093;37.716;-122.060;2023-02-02T12:06:25;100690.62;;;10.01;37.32
51053;BME280;37093;37.716;-122.060;2023-02-02T12:08:56;100691.83;;;10.04;37.23
51053;BME280;37093;37.716;-122.060;2023-02-02T12:11:34;100696.57;;;10.36;37.21
51053;BME280;37093;37.716;-122.060;2023-02-02T12:14:16;100696.25;;;10.29;37.10
51053;BME280;37093;37.716;-122.060;2023-02-02T12:16:59;100695.56;;;10.10;37.45
51053;BME280;37093;37.716;-122.060;2023-02-02T12:19:46;100696.58;;;10.03;37.35
51053;BME280;37093;37.716;-122.060;2023-02-02T12:22:30;100689.41;;;10.12;37.48
51053;BME280;37093;37.716;-122.060;2023-02-02T12:25:14;100691.83;;;9.88;37.77
51053;BME280;37093;37.716;-122.060;2023-02-02T12:27:54;100693.18;;;10.18;38.46
51053;BME280;37093;37.716;-122.060;2023-02-02T12:30:32;100692.40;;;10.13;38.20
51053;BME280;37093;37.716;-122.060;2023-02-02T12:33:14;100694.03;;;10.67;37.53
51053;BME280;37093;37.716;-122.060;2023-02-02T12:36:04;100696.46;;;10.14;37.54
51053;BME280;37093;37.716;-122.060;2023-02-02T12:38:45;100695.79;;;10.29;36.97
51053;BME280;37093;37.716;-122.060;2023-02-02T12:41:27;100702.78;;;9.93;38.26
51053;BME280;37093;37.716;-122.060;2023-02-02T12:44:00;100701.34;;;10.57;37.57